Terminal Aerodrome Forecast
Issued by NWS

Home | Current Version | Previous Version | Text Only | Print | Product List | Glossary On
Versions: 1 2 3 4 5 6 7 8 9 10 11 12 13 14 15
000
FTUS43 KLSX 240500
TAFCPS
TAF
KCPS 240520Z 2406/2506 12008KT P6SM BKN150
     FM241500 15013G22KT P6SM SCT050 BKN150
     FM241800 16014G24KT 6SM -SHRA BKN040
     FM242200 16014G22KT 5SM -SHRA VCTS OVC035CB=

USA.gov is the U.S. government's official web portal to all federal, state and local government web resources and services.